Time;durP1;ratioP1;P1;durP2;ratioP2;P2;SDS_P1;SDS_P2;PMS_P1;PMS_P2;Temp;Humidity;BMP_temperature;BMP_pressure;BME280_temperature;BME280_humidity;BME280_pressure;Samples;Min_cycle;Max_cycle;Signal;HPM_P1;HPM_P2
2022/08/24 00:01:02;;;;;;;2.03;1.25;;;;;;;29.29;37.20;99047.22;5089781;28;20507;-55
2022/08/24 00:03:28;;;;;;;2.05;1.20;;;;;;;29.32;37.01;99052.78;5090000;28;20051;-63
2022/08/24 00:05:54;;;;;;;2.00;1.20;;;;;;;29.28;37.09;99054.09;5089976;28;20044;-55
2022/08/24 00:08:19;;;;;;;2.13;1.20;;;;;;;29.31;37.21;99061.69;5089816;28;20036;-63
2022/08/24 00:10:45;;;;;;;2.63;1.40;;;;;;;29.32;37.04;99057.63;5089860;28;20140;-63
2022/08/24 00:13:12;;;;;;;2.25;1.40;;;;;;;29.32;36.97;99054.81;5089342;28;20143;-55
2022/08/24 00:15:38;;;;;;;2.22;1.30;;;;;;;29.29;37.35;99053.69;5090028;28;20094;-63
2022/08/24 00:18:03;;;;;;;2.40;1.23;;;;;;;29.32;37.33;99058.44;5089835;28;20415;-56
2022/08/24 00:20:29;;;;;;;2.00;1.30;;;;;;;29.31;37.20;99056.84;5089919;28;20052;-56
2022/08/24 00:22:54;;;;;;;1.88;1.02;;;;;;;29.31;37.14;99061.69;5089477;28;20382;-56
2022/08/24 00:25:20;;;;;;;1.65;1.00;;;;;;;29.32;37.18;99058.44;5089480;28;20572;-62
2022/08/24 00:27:46;;;;;;;1.48;1.10;;;;;;;29.28;37.34;99054.91;5089556;28;20070;-63
2022/08/24 00:30:15;;;;;;;1.70;1.10;;;;;;;29.32;37.20;99057.63;5089654;28;20036;-56
2022/08/24 00:32:42;;;;;;;2.10;1.35;;;;;;;29.29;37.00;99058.50;5089549;28;20051;-63
2022/08/24 00:35:08;;;;;;;1.92;1.17;;;;;;;29.32;37.09;99068.91;5087654;28;20048;-55
2022/08/24 00:37:35;;;;;;;1.92;1.10;;;;;;;29.32;37.25;99069.69;5089468;28;20044;-56
2022/08/24 00:40:03;;;;;;;1.95;1.23;;;;;;;29.28;37.38;99060.53;5089427;28;20101;-63
2022/08/24 00:42:28;;;;;;;1.45;1.00;;;;;;;29.32;37.11;99066.09;5088258;28;20166;-63
2022/08/24 00:44:53;;;;;;;1.75;1.10;;;;;;;29.31;36.94;99065.31;5089366;28;20032;-55
2022/08/24 00:47:30;;;;;;;1.60;1.00;;;;;;;29.29;37.44;99064.13;5089027;28;20079;-56
2022/08/24 00:49:59;;;;;;;1.88;1.30;;;;;;;29.30;37.18;99063.72;5089395;28;20130;-63
2022/08/24 00:52:45;;;;;;;1.58;1.10;;;;;;;29.27;37.38;99060.97;5089392;28;20044;-63
2022/08/24 00:55:26;;;;;;;1.60;1.00;;;;;;;29.28;37.17;99065.38;5089254;28;20046;-56
2022/08/24 00:57:57;;;;;;;2.17;1.10;;;;;;;29.29;37.25;99067.78;5089200;28;20128;-55
2022/08/24 01:00:27;;;;;;;2.20;1.10;;;;;;;29.29;37.49;99064.97;5089244;28;20056;-55
2022/08/24 01:02:58;;;;;;;1.92;1.20;;;;;;;29.28;37.25;99063.34;5089113;28;20569;-63
2022/08/24 01:05:24;;;;;;;1.70;1.10;;;;;;;29.30;37.29;99065.75;5089193;28;20033;-55
2022/08/24 01:07:50;;;;;;;2.50;1.45;;;;;;;29.28;37.23;99056.94;5089228;28;20036;-63
2022/08/24 01:10:20;;;;;;;2.28;1.25;;;;;;;29.29;37.34;99064.13;5088975;28;20055;-63
2022/08/24 01:12:49;;;;;;;2.03;1.27;;;;;;;29.30;37.23;99062.94;5089039;28;20140;-62
2022/08/24 01:15:15;;;;;;;1.65;1.10;;;;;;;29.30;37.35;99065.75;5089050;28;20040;-63
2022/08/24 01:20:26;;;;;;;2.25;1.20;;;;;;;29.29;37.38;99061.31;5089020;28;20069;-56
2022/08/24 01:23:24;;;;;;;1.73;1.02;;;;;;;29.29;37.54;99066.97;5088706;28;20044;-56
2022/08/24 01:25:49;;;;;;;1.73;1.00;;;;;;;29.28;37.57;99066.16;5038629;28;20055;-56
2022/08/24 01:28:17;;;;;;;1.60;1.00;;;;;;;29.29;37.49;99070.59;5046353;28;20049;-56
2022/08/24 01:30:44;;;;;;;1.88;1.13;;;;;;;29.29;37.60;99067.78;5046337;28;20052;-63
2022/08/24 01:33:20;;;;;;;1.88;1.10;;;;;;;29.27;37.20;99075.06;5046222;28;20064;-55
2022/08/24 01:35:47;;;;;;;1.88;1.00;;;;;;;29.29;37.23;99069.78;5046171;28;20092;-62
2022/08/24 01:38:12;;;;;;;1.95;1.17;;;;;;;29.25;37.56;99069.88;5045958;28;20095;-63
2022/08/24 01:40:45;;;;;;;1.30;0.90;;;;;;;29.29;37.20;99078.22;5046203;28;20037;-63
2022/08/24 01:43:11;;;;;;;2.10;1.17;;;;;;;29.29;37.45;99078.22;5046231;28;20057;-63
2022/08/24 01:45:37;;;;;;;1.48;1.10;;;;;;;29.28;37.52;99076.66;5046082;28;20118;-55
2022/08/24 01:48:03;;;;;;;1.67;1.08;;;;;;;29.28;37.49;99074.63;5046067;28;20033;-56
2022/08/24 01:50:30;;;;;;;2.00;1.20;;;;;;;29.29;37.58;99081.03;5045825;28;20071;-56
2022/08/24 01:53:00;;;;;;;1.60;1.02;;;;;;;29.28;37.45;99079.47;5046046;28;20056;-63
2022/08/24 01:55:25;;;;;;;2.15;1.23;;;;;;;29.27;37.32;99075.84;5049325;28;20493;-55
2022/08/24 01:57:51;;;;;;;2.03;1.20;;;;;;;29.29;37.25;99075.41;5049302;28;20055;-63
2022/08/24 02:00:16;;;;;;;1.90;1.15;;;;;;;29.28;37.23;99085.88;5050174;28;20575;-63
2022/08/24 02:02:43;;;;;;;2.92;0.90;;;;;;;29.27;37.38;99075.84;5092154;28;20544;-55
2022/08/24 02:05:11;;;;;;;2.25;1.30;;;;;;;29.26;37.36;99073.47;5091817;28;20038;-63
2022/08/24 02:07:37;;;;;;;1.92;1.20;;;;;;;29.25;37.25;99077.53;5091504;28;20055;-63
2022/08/24 02:10:05;;;;;;;1.80;1.10;;;;;;;29.28;37.60;99082.28;5091564;28;20048;-56
2022/08/24 02:12:36;;;;;;;1.73;1.08;;;;;;;29.28;37.23;99085.88;5091592;28;20140;-63
2022/08/24 02:15:04;;;;;;;1.60;1.10;;;;;;;29.28;37.49;99082.28;5091846;28;20047;-56
2022/08/24 02:17:29;;;;;;;1.63;1.10;;;;;;;29.28;37.34;99079.47;5091709;28;20139;-62
2022/08/24 02:19:55;;;;;;;2.03;1.30;;;;;;;29.27;37.34;99078.66;5091571;28;20101;-63
2022/08/24 02:22:20;;;;;;;1.60;1.10;;;;;;;29.26;37.65;99079.13;5091468;28;20044;-55
2022/08/24 02:24:45;;;;;;;1.98;1.10;;;;;;;29.24;37.33;99073.94;5091505;28;20032;-62
2022/08/24 02:27:12;;;;;;;1.55;1.10;;;;;;;29.24;37.47;99067.50;5091494;28;20054;-63
2022/08/24 02:29:37;;;;;;;1.90;1.10;;;;;;;29.26;37.63;99081.94;5091523;28;20044;-63
2022/08/24 02:32:03;;;;;;;1.92;1.10;;;;;;;29.26;37.66;99076.31;5091162;28;20052;-56
2022/08/24 02:34:29;;;;;;;1.80;1.10;;;;;;;29.24;37.64;99079.56;5091424;28;20640;-63
2022/08/24 02:36:54;;;;;;;2.05;1.10;;;;;;;29.26;37.73;99087.56;5091362;28;20131;-63
2022/08/24 02:39:20;;;;;;;1.30;0.88;;;;;;;29.26;37.73;99081.94;5091095;28;20415;-62
2022/08/24 02:41:45;;;;;;;2.20;1.20;;;;;;;29.26;37.46;99085.53;5091296;28;20043;-63
2022/08/24 02:44:11;;;;;;;1.77;1.08;;;;;;;29.25;37.53;99075.50;5090799;28;20036;-63
2022/08/24 02:46:36;;;;;;;1.70;1.13;;;;;;;29.26;37.60;99084.75;5090999;28;20097;-63
2022/08/24 02:49:02;;;;;;;1.45;0.95;;;;;;;29.27;37.65;99087.13;5091087;28;20914;-55
2022/08/24 02:51:31;;;;;;;1.48;0.90;;;;;;;29.26;37.66;99081.94;5091110;28;20044;-63
2022/08/24 02:53:58;;;;;;;2.17;1.10;;;;;;;29.27;37.48;99091.97;5091217;28;20064;-56
2022/08/24 02:56:26;;;;;;;1.60;1.00;;;;;;;29.27;37.65;99091.97;5091158;28;20040;-63
2022/08/24 02:58:51;;;;;;;1.35;0.98;;;;;;;29.26;37.78;99081.94;5091065;28;20052;-56
2022/08/24 03:01:17;;;;;;;1.95;1.02;;;;;;;29.28;37.76;99085.09;5090955;28;20078;-55
2022/08/24 03:03:43;;;;;;;1.55;0.95;;;;;;;29.26;37.45;99076.31;5090798;28;20376;-56
2022/08/24 03:06:08;;;;;;;1.80;1.00;;;;;;;29.22;37.38;99069.94;5090123;28;20055;-55
2022/08/24 03:08:35;;;;;;;1.75;1.13;;;;;;;29.27;37.68;99077.88;5092127;28;20550;-56
2022/08/24 03:11:02;;;;;;;1.85;1.02;;;;;;;29.26;37.75;99081.94;5111205;28;20504;-56
2022/08/24 03:13:29;;;;;;;1.63;1.00;;;;;;;29.25;37.62;99081.16;5111114;28;20130;-62
2022/08/24 03:15:55;;;;;;;1.50;1.00;;;;;;;29.23;37.71;99074.38;5111007;28;20075;-62
2022/08/24 03:18:24;;;;;;;2.00;1.20;;;;;;;29.26;37.61;99087.56;5111117;28;20572;-55
2022/08/24 03:20:50;;;;;;;1.42;0.93;;;;;;;29.24;37.60;99085.19;5108418;28;20039;-55
2022/08/24 03:23:16;;;;;;;1.63;1.05;;;;;;;29.26;37.79;99081.94;5090740;28;20051;-63
2022/08/24 03:25:41;;;;;;;1.88;0.90;;;;;;;29.25;37.78;99092.41;5090568;28;20036;-63
2022/08/24 03:28:07;;;;;;;1.65;0.98;;;;;;;29.25;37.64;99086.78;5090590;28;20048;-55
2022/08/24 03:30:33;;;;;;;1.58;0.98;;;;;;;29.26;37.77;99084.75;5090189;28;20048;-56
2022/08/24 03:32:58;;;;;;;1.27;0.88;;;;;;;29.25;37.60;99081.16;5090500;28;20051;-56
2022/08/24 03:35:24;;;;;;;2.65;1.17;;;;;;;29.27;37.52;99086.34;5090451;28;20044;-55
2022/08/24 03:37:50;;;;;;;2.10;1.20;;;;;;;29.25;37.89;99083.97;5090195;28;20677;-63
2022/08/24 03:40:15;;;;;;;1.88;1.20;;;;;;;29.25;37.55;99080.34;5090301;28;20059;-63
2022/08/24 03:42:41;;;;;;;1.60;0.82;;;;;;;29.26;38.00;99087.56;5090329;28;20040;-56
2022/08/24 03:45:08;;;;;;;1.35;0.90;;;;;;;29.25;37.66;99077.53;5090309;28;20051;-56
2022/08/24 03:47:33;;;;;;;1.98;1.10;;;;;;;29.22;37.56;99079.22;5090034;28;20086;-63
2022/08/24 03:49:59;;;;;;;1.88;0.98;;;;;;;29.26;37.85;99084.75;5089888;28;20497;-63
2022/08/24 03:52:25;;;;;;;1.92;1.02;;;;;;;29.24;37.49;99081.59;5089893;28;20079;-55
2022/08/24 03:54:51;;;;;;;1.77;1.05;;;;;;;29.25;37.89;99088.81;5089853;28;20044;-63
2022/08/24 03:57:17;;;;;;;1.80;1.05;;;;;;;29.24;37.61;99090.84;5090123;28;20522;-55
2022/08/24 03:59:42;;;;;;;1.50;0.95;;;;;;;29.21;37.63;99080.44;5090094;28;20507;-56
2022/08/24 04:02:08;;;;;;;1.55;1.05;;;;;;;29.24;37.79;99084.41;5090003;28;20044;-56
2022/08/24 04:04:33;;;;;;;1.60;1.08;;;;;;;29.25;37.67;99083.97;5089831;28;20096;-63
2022/08/24 04:06:59;;;;;;;1.27;0.82;;;;;;;29.25;37.62;99086.78;5089921;28;20036;-63
2022/08/24 04:09:25;;;;;;;1.73;0.98;;;;;;;29.25;37.68;99083.97;5089970;28;20055;-56
2022/08/24 04:11:50;;;;;;;2.00;1.10;;;;;;;29.23;37.94;99088.47;5089622;28;20056;-56
2022/08/24 04:14:18;;;;;;;1.40;0.93;;;;;;;29.25;37.70;99097.25;5089908;28;20032;-63
2022/08/24 04:16:44;;;;;;;1.65;1.00;;;;;;;29.24;37.66;99090.84;5088985;28;20139;-56
2022/08/24 04:19:10;;;;;;;1.80;1.20;;;;;;;29.23;37.85;99082.84;5089139;28;20040;-63
2022/08/24 04:21:36;;;;;;;1.73;1.00;;;;;;;29.24;37.92;99085.19;5089611;28;20072;-63
2022/08/24 04:24:04;;;;;;;1.40;0.93;;;;;;;29.25;37.69;99086.78;5089638;28;20048;-56
2022/08/24 04:26:30;;;;;;;1.45;0.95;;;;;;;29.23;37.80;99083.63;5089574;28;20071;-63
2022/08/24 04:28:56;;;;;;;1.50;1.00;;;;;;;29.25;37.74;99080.34;5089617;28;20500;-63
2022/08/24 04:31:23;;;;;;;1.75;1.05;;;;;;;29.24;37.84;99088.03;5089473;28;20088;-56
2022/08/24 04:33:50;;;;;;;1.35;0.85;;;;;;;29.23;37.72;99083.63;5089381;28;20040;-56
2022/08/24 04:36:17;;;;;;;2.53;1.00;;;;;;;29.23;37.69;99089.25;5089150;28;20530;-56
2022/08/24 04:38:44;;;;;;;2.55;1.10;;;;;;;29.23;37.87;99091.28;5089380;28;20059;-63
2022/08/24 04:41:14;;;;;;;1.73;1.00;;;;;;;29.24;37.93;99090.03;5089393;28;20037;-63
2022/08/24 04:43:44;;;;;;;1.00;0.80;;;;;;;29.25;37.81;99097.25;5089276;28;20055;-62
2022/08/24 04:46:14;;;;;;;1.40;0.93;;;;;;;29.24;37.83;99090.03;5070821;28;20604;-63
2022/08/24 04:48:40;;;;;;;1.75;1.10;;;;;;;29.25;37.78;99095.22;5089162;28;20109;-63
2022/08/24 04:51:10;;;;;;;1.40;1.00;;;;;;;29.24;37.83;99090.03;5089484;28;20048;-63
2022/08/24 04:53:36;;;;;;;1.52;1.08;;;;;;;29.22;38.07;99087.69;5089273;28;20050;-55
2022/08/24 04:56:02;;;;;;;1.55;0.90;;;;;;;29.23;37.90;99096.91;5089140;28;20036;-56
2022/08/24 04:58:29;;;;;;;1.38;0.90;;;;;;;29.26;37.96;99101.66;5089016;28;20051;-63
2022/08/24 05:00:55;;;;;;;1.55;0.90;;;;;;;29.26;38.12;99099.63;5089041;28;20500;-55
2022/08/24 05:03:21;;;;;;;1.65;1.08;;;;;;;29.26;37.92;99096.81;5089168;28;20492;-63
2022/08/24 05:05:49;;;;;;;1.88;0.90;;;;;;;29.25;37.83;99098.06;5088966;28;20089;-62
2022/08/24 05:08:16;;;;;;;1.60;0.90;;;;;;;29.29;37.93;99106.41;5088985;28;20124;-56
2022/08/24 05:10:44;;;;;;;1.35;0.77;;;;;;;29.29;38.00;99106.41;5089013;28;21052;-55
2022/08/24 05:13:10;;;;;;;1.42;1.00;;;;;;;29.30;37.74;99102.38;5088843;28;20052;-56
2022/08/24 05:15:40;;;;;;;1.75;1.00;;;;;;;29.28;37.85;99102.00;5089091;28;20036;-62
2022/08/24 05:18:06;;;;;;;1.83;1.10;;;;;;;29.29;37.84;99106.41;5088814;28;20032;-62
2022/08/24 05:20:37;;;;;;;1.42;0.80;;;;;;;29.31;38.04;99109.59;5088924;28;20032;-56
2022/08/24 05:23:02;;;;;;;1.48;0.90;;;;;;;29.33;37.95;99112.75;5088991;28;20048;-55
2022/08/24 05:25:28;;;;;;;1.48;0.90;;;;;;;29.31;37.89;99107.56;5089049;28;20396;-63
2022/08/24 05:27:53;;;;;;;1.42;0.90;;;;;;;29.32;37.94;99109.13;5089075;28;20059;-55
2022/08/24 05:30:19;;;;;;;1.02;0.70;;;;;;;29.35;38.09;99110.28;5092107;28;20123;-55
2022/08/24 05:32:45;;;;;;;1.60;0.90;;;;;;;29.34;37.80;99120.75;5092175;28;20058;-55
2022/08/24 05:35:11;;;;;;;1.40;0.88;;;;;;;29.33;37.89;99112.75;5092122;28;20051;-55
2022/08/24 05:37:38;;;;;;;1.85;0.93;;;;;;;29.34;38.16;99120.75;5091214;28;20086;-50
2022/08/24 05:40:06;;;;;;;7.97;1.10;;;;;;;29.34;38.26;99117.94;5101444;28;20059;-54
2022/08/24 05:42:31;;;;;;;19.20;1.63;;;;;;;29.35;38.42;99115.91;5079440;28;20054;-59
2022/08/24 05:44:57;;;;;;;47.67;4.40;;;;;;;29.36;38.55;99125.94;5106663;28;20040;-59
2022/08/24 05:47:24;;;;;;;24.50;2.50;;;;;;;29.37;38.80;99121.13;5091606;28;20305;-55
2022/08/24 05:49:51;;;;;;;20.05;2.08;;;;;;;29.38;38.83;99129.13;5091788;28;20149;-55
2022/08/24 05:52:17;;;;;;;15.93;1.73;;;;;;;29.39;38.58;99127.91;5091750;28;20253;-59
2022/08/24 05:54:43;;;;;;;24.05;2.45;;;;;;;29.37;38.47;99130.38;5091300;28;20562;-58
2022/08/24 05:57:08;;;;;;;20.05;1.65;;;;;;;29.40;38.74;99132.28;5091353;28;20102;-59
2022/08/24 05:59:34;;;;;;;24.42;2.13;;;;;;;29.41;38.63;99133.88;5091664;28;20051;-54
2022/08/24 06:01:59;;;;;;;12.55;1.80;;;;;;;29.36;38.60;99140.03;5074437;28;20500;-59
2022/08/24 06:04:25;;;;;;;18.63;1.90;;;;;;;29.24;38.83;99138.72;5091446;28;20515;-59
2022/08/24 06:06:51;;;;;;;14.77;1.75;;;;;;;29.11;38.16;99140.66;5090384;28;20048;-59
2022/08/24 06:09:16;;;;;;;13.27;1.70;;;;;;;29.03;39.44;99144.88;5091587;28;20051;-59
2022/08/24 06:11:43;;;;;;;14.60;2.00;;;;;;;28.86;39.83;99146.03;5091249;28;20076;-55
2022/08/24 06:14:11;;;;;;;11.75;1.60;;;;;;;28.73;40.05;99148.75;5091295;28;20044;-54
2022/08/24 06:16:39;;;;;;;15.75;1.52;;;;;;;28.70;40.17;99152.41;5090550;28;20043;-59
2022/08/24 06:19:06;;;;;;;13.18;1.80;;;;;;;28.68;40.01;99149.25;5091386;28;20048;-59
2022/08/24 06:21:32;;;;;;;10.55;1.50;;;;;;;28.70;40.11;99152.41;5103069;28;20040;-59
2022/08/24 06:23:58;;;;;;;12.20;1.55;;;;;;;28.64;39.98;99142.88;5094307;28;20044;-59
2022/08/24 06:29:09;;;;;;;11.00;1.55;;;;;;;28.70;39.94;99143.97;5091216;28;20101;-59
2022/08/24 06:31:37;;;;;;;9.45;1.77;;;;;;;28.63;39.88;99139.28;5091038;28;20051;-59
2022/08/24 06:34:02;;;;;;;5.38;1.27;;;;;;;28.64;39.89;99146.50;5093339;28;20051;-54
2022/08/24 06:36:28;;;;;;;8.48;1.30;;;;;;;28.65;39.64;99138.88;5090271;28;20109;-53
2022/08/24 06:38:53;;;;;;;7.70;1.58;;;;;;;28.59;39.66;99141.41;5087762;28;20097;-54
2022/08/24 06:41:20;;;;;;;9.02;1.70;;;;;;;28.57;39.06;99143.03;5089950;28;20048;-57
2022/08/24 06:43:46;;;;;;;5.00;1.70;;;;;;;28.48;38.75;99146.44;5100969;28;20089;-55
2022/08/24 06:46:12;;;;;;;4.20;1.80;;;;;;;28.37;38.59;99145.88;5090235;28;20044;-55
2022/08/24 06:48:37;;;;;;;8.60;5.60;;;;;;;28.25;38.41;99147.28;5092815;28;20067;-55
2022/08/24 06:51:12;;;;;;;16.70;10.68;;;;;;;28.19;38.33;99149.00;5090696;28;20050;-55
2022/08/24 06:53:38;;;;;;;22.75;14.60;;;;;;;28.12;38.29;99147.13;5090878;28;20577;-60
2022/08/24 06:56:04;;;;;;;20.98;12.45;;;;;;;28.05;38.38;99147.28;5090099;28;20071;-60
2022/08/24 06:58:31;;;;;;;15.50;9.40;;;;;;;28.06;38.38;99150.88;5090229;28;20055;-60
2022/08/24 07:00:57;;;;;;;11.70;7.13;;;;;;;28.02;38.66;99145.34;5094475;28;20036;-61
2022/08/24 07:03:24;;;;;;;10.88;5.88;;;;;;;27.95;38.65;99151.09;5093730;28;20047;-59
2022/08/24 07:05:50;;;;;;;6.75;4.55;;;;;;;27.92;38.61;99144.28;5107618;28;20101;-61
2022/08/24 07:08:16;;;;;;;9.73;4.15;;;;;;;27.89;38.70;99138.75;5096621;28;20430;-61
2022/08/24 07:10:42;;;;;;;11.00;3.55;;;;;;;27.86;38.60;99150.84;5097868;28;20047;-58
2022/08/24 07:13:09;;;;;;;11.50;3.20;;;;;;;27.81;38.36;99146.53;5089778;28;20044;-48
2022/08/24 07:15:34;;;;;;;5.60;2.88;;;;;;;27.79;38.59;99151.78;5090235;28;20101;-60
2022/08/24 07:18:02;;;;;;;9.05;2.65;;;;;;;27.75;38.35;99151.03;5100417;28;20039;-60
2022/08/24 07:20:29;;;;;;;7.28;2.97;;;;;;;27.67;38.30;99144.75;5089520;28;20040;-53
2022/08/24 07:22:54;;;;;;;11.48;3.17;;;;;;;27.63;38.47;99148.81;5097567;28;20126;-52
2022/08/24 07:25:20;;;;;;;11.07;3.88;;;;;;;27.59;38.65;99146.09;5091605;28;20406;-59
2022/08/24 07:27:46;;;;;;;8.02;4.30;;;;;;;27.58;38.62;99143.72;5100835;28;20043;-54
2022/08/24 07:30:12;;;;;;;10.35;4.20;;;;;;;27.60;38.54;99144.06;5104299;28;20048;-58
2022/08/24 07:32:37;;;;;;;7.32;4.30;;;;;;;27.64;38.50;99139.16;5098964;28;20040;-59
2022/08/24 07:35:04;;;;;;;10.75;3.80;;;;;;;27.69;38.26;99149.94;5095862;28;20032;-54
2022/08/24 07:37:29;;;;;;;8.02;4.00;;;;;;;27.67;38.21;99146.75;5103812;28;20051;-54
2022/08/24 07:39:55;;;;;;;8.00;3.85;;;;;;;27.69;38.09;99142.31;5107944;28;20047;-59
2022/08/24 07:42:23;;;;;;;9.02;3.70;;;;;;;27.72;38.16;99146.28;5101059;28;20122;-59
2022/08/24 07:44:49;;;;;;;6.35;3.55;;;;;;;27.77;38.09;99148.59;5101417;28;20613;-53
2022/08/24 07:47:14;;;;;;;4.78;3.20;;;;;;;27.83;38.12;99149.69;5093410;28;20043;-48
2022/08/24 07:49:40;;;;;;;9.43;3.70;;;;;;;27.87;38.25;99152.44;5105888;28;20066;-48
2022/08/24 07:52:05;;;;;;;5.85;3.55;;;;;;;27.87;38.33;99150.44;5107209;27;20510;-51
2022/08/24 07:54:31;;;;;;;6.57;3.20;;;;;;;27.89;38.28;99147.19;5106160;28;20039;-60
2022/08/24 07:56:58;;;;;;;5.30;3.22;;;;;;;27.88;38.29;99145.59;5101405;28;20043;-59
2022/08/24 07:59:24;;;;;;;6.47;3.40;;;;;;;27.95;38.28;99145.47;5088367;28;20056;-60
2022/08/24 08:01:51;;;;;;;5.65;3.00;;;;;;;28.01;38.33;99155.00;5088591;28;20054;-60
2022/08/24 08:04:20;;;;;;;8.75;3.30;;;;;;;28.04;38.39;99156.94;5095950;28;20039;-52
2022/08/24 08:06:46;;;;;;;9.65;3.40;;;;;;;28.09;38.18;99153.63;5100286;28;20142;-55
2022/08/24 08:09:11;;;;;;;6.75;3.30;;;;;;;28.10;38.47;99151.63;5101215;28;20497;-53
2022/08/24 08:11:37;;;;;;;5.55;3.28;;;;;;;28.09;38.44;99145.19;5102240;28;20109;-53
2022/08/24 08:14:02;;;;;;;7.22;3.20;;;;;;;28.16;38.42;99142.25;5104610;28;20046;-58
2022/08/24 08:16:28;;;;;;;5.10;2.80;;;;;;;28.20;38.46;99142.16;5103606;28;20423;-59
2022/08/24 08:18:54;;;;;;;8.45;3.30;;;;;;;28.25;38.43;99138.84;5099178;28;20071;-52
2022/08/24 08:24:16;;;;;;;4.93;2.85;;;;;;;28.29;38.00;99133.97;5096976;28;21016;-60
2022/08/24 08:26:43;;;;;;;5.82;2.80;;;;;;;28.30;38.23;99138.38;5098325;28;20051;-54
2022/08/24 08:29:10;;;;;;;7.22;2.47;;;;;;;28.28;38.21;99129.53;5095643;28;20047;-60
2022/08/24 08:31:36;;;;;;;4.38;2.80;;;;;;;28.32;38.33;99135.94;5096626;28;20130;-54
2022/08/24 08:34:03;;;;;;;4.10;2.20;;;;;;;28.31;38.24;99137.16;5097996;28;20040;-55
2022/08/24 08:36:29;;;;;;;6.40;2.97;;;;;;;28.26;38.33;99137.63;5107545;28;20591;-60
2022/08/24 08:38:55;;;;;;;5.03;2.53;;;;;;;28.25;38.55;99133.22;5109237;28;20080;-53
2022/08/24 08:41:58;;;;;;;4.72;2.30;;;;;;;28.29;38.46;99133.13;5099652;28;20064;-56
2022/08/24 08:44:24;;;;;;;;;;;;;;;28.35;38.54;99131.44;5100418;28;20089;-55
2022/08/24 08:47:13;;;;;;;7.18;2.28;;;;;;;28.25;38.22;99124.78;5099749;28;19959;-61
2022/08/24 08:50:11;;;;;;;9.75;3.88;;;;;;;28.17;38.15;99132.56;5106115;28;20059;-53
2022/08/24 08:52:56;;;;;;;6.65;4.07;;;;;;;28.08;38.14;99125.94;5105473;28;20092;-54
2022/08/24 08:55:37;;;;;;;6.88;5.32;;;;;;;28.08;38.17;99123.13;5108236;28;20449;-55
2022/08/24 08:58:14;;;;;;;12.65;8.20;;;;;;;28.09;38.08;99124.72;5098933;28;20042;-62
2022/08/24 09:01:00;;;;;;;14.02;8.10;;;;;;;28.08;38.20;99125.94;5105220;28;20056;-55
2022/08/24 09:03:35;;;;;;;13.80;8.07;;;;;;;28.11;38.30;99120.25;5103059;27;20043;-58
2022/08/24 09:06:10;;;;;;;14.60;8.18;;;;;;;28.17;37.94;99114.91;5100974;28;20047;-55
2022/08/24 09:09:03;;;;;;;14.27;7.85;;;;;;;28.23;38.26;99113.19;5098992;28;20139;-58
2022/08/24 09:11:34;;;;;;;;;;;;;;;28.28;38.29;99112.66;5088730;28;20428;-50
2022/08/24 09:14:21;;;;;;;11.25;6.75;;;;;;;28.31;38.31;99111.84;5096529;28;19959;-64
2022/08/24 09:17:28;;;;;;;12.93;6.80;;;;;;;28.31;38.58;99105.41;5096918;28;20514;-58
2022/08/24 09:20:11;;;;;;;9.23;6.28;;;;;;;28.29;38.90;99099.38;5040963;28;20057;-61
2022/08/24 09:22:43;;;;;;;8.82;5.70;;;;;;;28.30;38.76;99101.81;5037394;28;20049;-51
2022/08/24 09:25:22;;;;;;;10.80;5.75;;;;;;;28.30;38.75;99099.00;5028455;28;21008;-55
2022/08/24 09:28:10;;;;;;;10.25;6.10;;;;;;;28.35;38.57;99103.31;5031800;28;20060;-56
2022/08/24 09:30:47;;;;;;;10.25;5.50;;;;;;;28.40;38.61;99094.38;5032480;28;20059;-61
2022/08/24 09:33:29;;;;;;;9.57;5.63;;;;;;;28.41;38.47;99090.31;5032063;28;20049;-60
2022/08/24 09:36:12;;;;;;;7.53;5.37;;;;;;;28.38;38.66;99094.03;5030514;28;20981;-61
2022/08/24 09:39:15;;;;;;;9.60;5.20;;;;;;;28.39;38.75;99093.59;5032159;28;20343;-60
2022/08/24 09:42:11;;;;;;;10.05;5.20;;;;;;;28.41;38.58;99093.13;5031856;28;20064;-56
2022/08/24 09:45:19;;;;;;;7.88;5.20;;;;;;;28.45;38.59;99085.44;5038776;28;20055;-55
2022/08/24 09:47:50;;;;;;;9.05;5.18;;;;;;;28.45;38.65;99077.78;5035695;28;20083;-56
2022/08/24 09:50:34;;;;;;;8.68;4.82;;;;;;;28.47;38.79;99071.72;5033764;28;20037;-63
2022/08/24 09:53:11;;;;;;;7.70;5.10;;;;;;;28.48;38.69;99068.44;5036514;28;20404;-60
2022/08/24 09:55:49;;;;;;;9.23;4.63;;;;;;;28.50;38.60;99071.66;5044097;28;20091;-50
2022/08/24 09:58:29;;;;;;;8.75;4.50;;;;;;;28.54;38.43;99070.75;5097438;28;20802;-55
2022/08/24 10:01:04;;;;;;;10.18;4.55;;;;;;;28.52;38.81;99062.75;5099233;28;20536;-55
2022/08/24 10:04:10;;;;;;;7.43;4.60;;;;;;;28.54;38.71;99062.31;5105501;28;20137;-61
2022/08/24 10:06:52;;;;;;;8.07;4.30;;;;;;;28.54;38.24;99062.31;5058065;28;20040;-60
2022/08/24 10:09:45;;;;;;;10.90;4.07;;;;;;;28.49;38.27;99058.00;5087623;28;21045;-60
2022/08/24 10:12:13;;;;;;;;;;;;;;;28.55;38.08;99053.44;5099031;28;20130;-55
2022/08/24 10:14:57;;;;;;;6.70;3.65;;;;;;;28.49;38.35;99055.97;5090502;28;19919;-59
2022/08/24 10:17:31;;;;;;;6.72;3.95;;;;;;;28.43;38.33;99054.09;5089266;28;20063;-56
2022/08/24 10:20:23;;;;;;;7.45;3.63;;;;;;;28.44;38.17;99050.88;5102313;28;20069;-59
2022/08/24 10:23:10;;;;;;;7.25;3.33;;;;;;;28.44;38.35;99048.06;5095239;28;20040;-55
2022/08/24 10:25:50;;;;;;;9.05;3.40;;;;;;;28.40;38.60;99038.91;5096587;28;20051;-60
2022/08/24 10:28:48;;;;;;;8.00;3.38;;;;;;;28.39;38.45;99042.94;5094716;28;20044;-60
2022/08/24 10:31:37;;;;;;;5.32;3.38;;;;;;;28.40;38.39;99038.09;5096193;28;20552;-60
2022/08/24 10:34:32;;;;;;;4.60;3.03;;;;;;;28.42;38.34;99028.00;5104227;28;20100;-60
2022/08/24 10:37:19;;;;;;;5.38;3.33;;;;;;;28.45;38.34;99021.50;5092781;28;20052;-60
2022/08/24 10:40:13;;;;;;;7.80;3.50;;;;;;;28.42;38.31;99013.13;5094110;28;20173;-55
2022/08/24 10:46:42;;;;;;;5.60;3.47;;;;;;;28.47;38.26;99012.63;5088589;28;20140;-55
2022/08/24 10:49:13;;;;;;;4.35;2.90;;;;;;;28.51;38.17;99005.69;5093497;28;20035;-60
2022/08/24 10:51:38;;;;;;;5.88;2.95;;;;;;;28.50;38.09;99006.94;5096924;28;20056;-55
2022/08/24 10:54:05;;;;;;;6.18;3.15;;;;;;;28.47;38.22;99001.38;5103601;28;20059;-60
2022/08/24 10:57:06;;;;;;;5.32;3.47;;;;;;;28.51;38.20;99002.09;5092555;28;20086;-60
2022/08/24 10:59:59;;;;;;;6.13;3.35;;;;;;;28.52;38.03;98998.03;5086624;28;20176;-56
2022/08/24 11:02:28;;;;;;;5.18;3.05;;;;;;;28.54;37.91;98998.38;5101450;28;20055;-55
2022/08/24 11:04:59;;;;;;;5.25;3.25;;;;;;;28.50;38.10;98992.84;5102043;28;20051;-60
2022/08/24 11:07:25;;;;;;;4.50;2.70;;;;;;;28.55;37.94;98993.56;5092559;28;20049;-56
2022/08/24 11:09:55;;;;;;;7.18;3.08;;;;;;;28.58;37.83;98992.69;5098964;28;20044;-60
2022/08/24 11:12:38;;;;;;;4.75;2.90;;;;;;;28.58;37.78;98984.25;5106060;28;20055;-55
2022/08/24 11:15:19;;;;;;;4.40;2.83;;;;;;;28.58;37.86;98987.84;5107978;28;20122;-60
2022/08/24 11:18:00;;;;;;;4.57;2.83;;;;;;;28.57;37.66;98977.00;5106466;28;20044;-56
2022/08/24 11:20:40;;;;;;;4.82;2.58;;;;;;;28.56;37.89;98973.41;5099747;28;20127;-55
2022/08/24 11:23:13;;;;;;;4.65;2.60;;;;;;;28.57;37.73;98971.38;5101720;28;20514;-60
2022/08/24 11:25:50;;;;;;;3.95;2.85;;;;;;;28.59;37.88;98975.38;5107595;28;21085;-55
2022/08/24 11:28:37;;;;;;;4.93;2.97;;;;;;;28.62;37.74;98966.03;5105275;28;20055;-59
2022/08/24 11:31:03;;;;;;;4.30;2.70;;;;;;;28.63;37.81;98972.44;5105801;28;20059;-55
2022/08/24 11:33:43;;;;;;;4.75;2.80;;;;;;;28.59;37.65;98958.47;5102532;28;20074;-60
2022/08/24 11:36:15;;;;;;;5.00;2.90;;;;;;;28.59;37.67;98964.09;5101239;28;20087;-55
2022/08/24 11:38:41;;;;;;;5.70;2.78;;;;;;;28.62;37.57;98959.63;5101236;28;20052;-56
2022/08/24 11:41:17;;;;;;;4.93;2.80;;;;;;;28.66;37.85;98966.75;5105653;28;20112;-58
2022/08/24 11:44:00;;;;;;;5.32;2.92;;;;;;;28.66;38.51;98961.13;5110076;28;20062;-61
2022/08/24 11:46:52;;;;;;;3.53;2.50;;;;;;;28.69;38.88;98965.06;5107016;28;20055;-59
2022/08/24 11:49:41;;;;;;;4.50;2.47;;;;;;;28.72;38.85;98961.34;5107845;28;20035;-60
2022/08/24 11:52:10;;;;;;;4.13;2.20;;;;;;;28.70;39.26;98950.56;5103046;28;20063;-55
2022/08/24 11:54:47;;;;;;;4.13;2.67;;;;;;;28.73;39.15;98946.09;5108025;28;20684;-51
2022/08/24 11:57:20;;;;;;;3.50;2.15;;;;;;;28.75;39.54;98947.22;5102376;28;20047;-58
2022/08/24 12:00:17;;;;;;;4.75;2.50;;;;;;;28.80;39.63;98940.28;5109351;28;20113;-58